• Join FlightAware (Why Join?)
  • Login
  • US Flag 
03:29AM EDT


 

Airport Tracker/Info


-or-


 

Live Flight TrackerFlight Track Log ✈ SWA3497 ✈ 26-Apr-2013 ✈ KSDF - KBWI

Flight Track Log - Related Links

Times and Time Zones

All times are in EDT time to prevent confusion due to time zone crossing. See the SWA3497 flight status page for this flight to view local times or setup timezone preferences in your user account.

Time Position Orientation Groundspeed Altitude Reporting Facility
EDT Latitude Longitude Course Direction KTS MPH feet Rate Location/Type
02:16PM 38.0944 -85.7194 106° East 221 254 4,400  Level Indianapolis Center
02:18PM 38.0733 -85.6283 106° East 272 313 7,600 3,120 Climbing Indianapolis Center
02:19PM 38.0767 -85.5319 87° East 275 316 10,800 3,120 Climbing Indianapolis Center
02:20PM 38.0831 -85.4119 86° East 335 386 14,100 3,240 Climbing Indianapolis Center
02:20PM 38.0872 -85.3103 87° East 355 409 16,600 2,760 Climbing Indianapolis Center
02:21PM 38.1000 -85.1728 83° East 380 437 19,000 2,460 Climbing Indianapolis Center
02:22PM 38.1136 -85.0317 83° East 399 459 21,700 2,340 Climbing Indianapolis Center
02:23PM 38.1256 -84.8831 84° East 418 481 23,800 2,040 Climbing Indianapolis Center
02:24PM 38.1411 -84.7239 83° East 445 512 25,900 1,560 Climbing Indianapolis Center
02:25PM 38.1553 -84.5575 84° East 466 536 27,000 1,320 Climbing Indianapolis Center
02:26PM 38.1689 -84.3861 84° East 480 552 28,700 1,620 Climbing Indianapolis Center
02:27PM 38.1819 -84.2103 85° East 494 568 30,400 1,680 Climbing Indianapolis Center
02:29PM 38.1969 -84.0292 84° East 508 585 32,200 1,740 Climbing Indianapolis Center
02:30PM 38.2122 -83.8178 85° East 512 589 34,000 1,620 Climbing Indianapolis Center
02:31PM 38.2264 -83.6378 84° East 513 590 35,600 1,440 Climbing Indianapolis Center
02:32PM 38.2386 -83.4553 85° East 515 593 37,000 660 Climbing Indianapolis Center
02:33PM 38.2531 -83.2753 84° East 511 588 37,000  Level Indianapolis Center
02:34PM 38.2653 -83.0958 85° East 507 583 37,000  Level Indianapolis Center
02:35PM 38.2769 -82.9169 85° East 506 582 37,000 720 Level Indianapolis Center
02:36PM 38.2883 -82.7364 85° East 510 587 38,600 960 Climbing Indianapolis Center
02:37PM 38.3022 -82.5289 85° East 504 580 39,000 180 Climbing Indianapolis Center
02:38PM 38.3142 -82.3489 85° East 508 585 39,000  Level Indianapolis Center
02:39PM 38.3256 -82.1722 85° East 502 578 39,000  Level Indianapolis Center
02:40PM 38.3372 -81.9981 85° East 497 572 39,000  Level Indianapolis Center
02:41PM 38.3472 -81.8228 86° East 499 574 39,000  Level Indianapolis Center
02:42PM 38.3458 -81.6469 91° East 503 579 39,000  Level Indianapolis Center
02:43PM 38.3397 -81.4367 92° East 502 578 39,000  Level Indianapolis Center
02:44PM 38.3344 -81.2628 92° East 498 573 39,000  Level Indianapolis Center
02:45PM 38.3272 -81.0886 93° East 497 572 39,000  Level Indianapolis Center
02:46PM 38.3231 -80.9858 93° East 498 573 39,000  Level Washington Center
02:47PM 38.3161 -80.8106 93° East 498 573 39,000  Level Washington Center
02:48PM 38.3111 -80.6356 92° East 498 573 39,000 -360 Level Washington Center
02:49PM 38.3217 -80.4828 85° East 498 573 38,300 -840 Descending Washington Center
02:50PM 38.3453 -80.3122 80° East 487 560 37,400 -660 Descending Washington Center
02:51PM 38.3686 -80.1389 80° East 493 567 37,000 -240 Descending Washington Center
02:52PM 38.3897 -79.9653 81° East 493 567 37,000  Level Washington Center
02:53PM 38.4153 -79.7733 80° East 500 575 37,000  Level Washington Center
02:54PM 38.4381 -79.5997 80° East 500 575 37,000  Level Washington Center
02:55PM 38.4603 -79.4258 81° East 500 575 37,000 -900 Level Washington Center
02:56PM 38.4825 -79.2519 81° East 500 575 35,300 -2,340 Descending Washington Center
02:57PM 38.5044 -79.0753 81° East 500 575 32,300 -2,880 Descending Washington Center
02:58PM 38.5233 -78.9169 81° East 500 575 29,700 -2,700 Descending Washington Center
02:59PM 38.5453 -78.7242 82° East 500 575 27,100 -1,380 Descending Washington Center
03:00PM 38.5642 -78.5575 82° East 484 557 27,000 -300 Descending Washington Center
03:01PM 38.5803 -78.4014 82° East 464 534 26,600 -1,380 Descending Washington Center
03:02PM 38.5986 -78.2403 82° East 458 527 24,300 -2,340 Descending Washington Center
03:03PM 38.6164 -78.0894 81° East 448 516 22,100 -2,220 Descending Washington Center
03:04PM 38.6319 -77.9411 82° East 425 489 19,900 -1,560 Descending Washington Center
03:05PM 38.6450 -77.7978 83° East 415 478 19,000 -480 Descending Washington Center
03:06PM 38.6539 -77.6547 85° East 404 465 19,000 -240 Level Washington Center
03:06PM 38.6500 -77.6000 95° East 401 461 18,700 -1,260 Descending Potomac TRACON
03:07PM 38.6667 -77.4500 82° East 385 443 17,300 -1,380 Descending Potomac TRACON
03:08PM 38.6667 -77.3333 90° East 383 441 16,100 -1,440 Descending Potomac TRACON
03:09PM 38.6833 -77.2000 81° East 372 428 14,600 -1,740 Descending Potomac TRACON
03:10PM 38.6833 -77.0500 90° East 363 418 12,500 -2,040 Descending Potomac TRACON
03:11PM 38.7000 -76.9333 80° East 361 415 10,400 -1,440 Descending Potomac TRACON
03:12PM 38.6981 -76.8658 92° East 356 410 10,200 -900 Descending Washington Center
03:13PM 38.7033 -76.7542 86° East 328 377 9,000 -1,140 Descending Washington Center
03:14PM 38.7667 -76.6167 59° Northeast 282 325 7,500 -1,200 Descending Potomac TRACON
03:15PM 38.8000 -76.5333 63° Northeast 278 320 6,100 -1,500 Descending Potomac TRACON
03:16PM 38.8667 -76.5333 360° North 259 298 4,700 -1,200 Descending Potomac TRACON
03:17PM 38.9333 -76.5500 349° North 240 276 3,800 -540 Descending Potomac TRACON
03:18PM 39.0000 -76.5833 339° North 216 249 3,600 -600 Descending Potomac TRACON
03:19PM 39.0500 -76.6000 345° North 201 231 2,600 -1,020 Descending Potomac TRACON
03:20PM 39.1000 -76.6167 345° North 175 201 1,600 -900 Descending Potomac TRACON
03:21PM 39.1333 -76.6333 339° North 138 159 800 -840 Descending Potomac TRACON
03:23PM 39.1667 -76.6667 339° North  Level FlightAware Approximate
03:30PM 39.1754 -76.6683 339° North  Level Estimated
03:31PM 39.1754 -76.6683 339° North  Level Estimated
03:32PM 39.1754 -76.6683 339° North  Level Estimated
03:33PM 39.1754 -76.6683 339° North  Level Estimated
03:34PM 39.1754 -76.6683 339° North  Level Estimated